MOL Paramount — 3ECH9 — position and weather

sailwx.info

Track history (hours):
 
Tides and Currents Weather Stations Pressure Air Temp Water Temp Dewpoint Dewpoint Depression Visibility Wind Speed Wind Dir Waves Ship Positions

MOL Paramount

Last reported at 2017-Mar-19 06:28 UTC. Time now 2017-Mar-27 10:51 UTC.
Position N 09°33' W 079°49'.
Warning: this ship's position is 8 days out of date.

Length 293 m; draft 12.9 m.

Type: Cargo ship. MMSI: 371519000.

Date/timePositionNaut miles runAvg speedWind from/ knotsBaromVisibWave heightAir tempDewpointWater temp
2017-Mar-19 06:28N 09°33' W 079°49'1213.6
2017-Mar-19 05:33N 09°22' W 079°55'1 0.9
2017-Mar-19 04:33N 09°21' W 079°55'0 0.0
2017-Mar-19 03:30N 09°21' W 079°55'0 0.0
2017-Mar-19 02:33N 09°21' W 079°55'0 0.0
2017-Mar-19 01:33N 09°21' W 079°55'0 0.0
2017-Mar-19 00:33N 09°21' W 079°55'0 0.0
2017-Mar-18 23:33N 09°21' W 079°55'0 0.0
2017-Mar-18 22:33N 09°21' W 079°55'0 0.0
2017-Mar-18 21:33N 09°21' W 079°55'0 0.0
2017-Mar-18 20:30N 09°21' W 079°55'0 0.0
2017-Mar-18 19:33N 09°21' W 079°55'0 0.0
2017-Mar-18 18:33N 09°21' W 079°55'0 0.0
2017-Mar-18 17:33N 09°21' W 079°55'0 0.0
2017-Mar-18 16:33N 09°21' W 079°55'0 0.0
2017-Mar-18 15:30N 09°21' W 079°55'0 0.0
2017-Mar-18 14:30N 09°21' W 079°55'0 0.0
2017-Mar-18 13:33N 09°21' W 079°55'0 0.0
2017-Mar-18 12:33N 09°21' W 079°55'0 0.0
2017-Mar-18 11:33N 09°21' W 079°55'0 0.0
2017-Mar-18 10:33N 09°21' W 079°55'0 0.0
2017-Mar-18 09:33N 09°21' W 079°55'0 0.0
2017-Mar-18 08:33N 09°21' W 079°55'2 1.6
2017-Mar-18 07:33N 09°23' W 079°55'5 4.8
2017-Mar-18 06:33N 09°27' W 079°55'7 1.3
2017-Mar-18 01:33N 09°21' W 079°55'5 5.1
2017-Mar-18 00:34N 09°26' W 079°55'2 1.7
2017-Mar-17 23:33N 09°27' W 079°57'0 0.2
2017-Mar-17 22:33N 09°27' W 079°57'  
2017-Mar-14 16:33N 29°21' W 094°43'10 9.6
2017-Mar-14 15:33N 29°27' W 094°51'1010.0
2017-Mar-14 14:33N 29°36' W 094°57'6 5.6
2017-Mar-14 13:33N 29°41' W 095°00'0 0.0
2017-Mar-14 12:33N 29°41' W 095°00'0 0.0
2017-Mar-14 11:33N 29°41' W 095°00'0 0.0
2017-Mar-14 10:33N 29°41' W 095°00'0 0.0
2017-Mar-14 09:33N 29°41' W 095°00'0 0.0
2017-Mar-14 08:33N 29°41' W 095°00'0 0.0
2017-Mar-14 07:33N 29°41' W 095°00'0 0.0
2017-Mar-14 06:33N 29°41' W 095°00'0 0.0
2017-Mar-14 05:33N 29°41' W 095°00'0 0.0
2017-Mar-14 04:33N 29°41' W 095°00'0 0.0
2017-Mar-14 03:33N 29°41' W 095°00'0 0.0
2017-Mar-14 02:33N 29°41' W 095°00'0 0.0
2017-Mar-14 01:33N 29°41' W 095°00'0 0.0
2017-Mar-14 00:33N 29°41' W 095°00'0 0.0
2017-Mar-13 23:33N 29°41' W 095°00'0 0.0
2017-Mar-13 22:33N 29°41' W 095°00'0 0.0
2017-Mar-13 21:33N 29°41' W 095°00'0 0.0
2017-Mar-13 20:33N 29°41' W 095°00'0 0.0
2017-Mar-13 19:33N 29°41' W 095°00'0 0.0
2017-Mar-13 18:33N 29°41' W 095°00'0 0.0
2017-Mar-13 17:33N 29°41' W 095°00'0 0.0
2017-Mar-13 16:33N 29°41' W 095°00'0 0.0
2017-Mar-13 15:33N 29°41' W 095°00'0 0.0
2017-Mar-13 14:33N 29°41' W 095°00'0 0.0
2017-Mar-13 13:33N 29°41' W 095°00'0 0.0
2017-Mar-13 12:33N 29°41' W 095°00'0 0.0
2017-Mar-13 11:33N 29°41' W 095°00'0 0.0
2017-Mar-13 10:33N 29°41' W 095°00'0 0.0
2017-Mar-13 09:33N 29°41' W 095°00'0 0.0
2017-Mar-13 08:33N 29°41' W 095°00'0 0.0
2017-Mar-13 07:33N 29°41' W 095°00'0 0.0
2017-Mar-13 06:33N 29°41' W 095°00'0 0.0
2017-Mar-13 05:33N 29°41' W 095°00'0 0.0
2017-Mar-13 04:33N 29°41' W 095°00'0 0.0
2017-Mar-13 03:33N 29°41' W 095°00'0 0.0
2017-Mar-13 02:33N 29°41' W 095°00'0 0.0
2017-Mar-13 01:33N 29°41' W 095°00'0 0.0
2017-Mar-13 00:33N 29°41' W 095°00'0 0.0
2017-Mar-12 23:33N 29°41' W 095°00'0 0.0
2017-Mar-12 22:33N 29°41' W 095°00'0 0.0
2017-Mar-12 21:33N 29°41' W 095°00'0 0.0
2017-Mar-12 20:33N 29°41' W 095°00'0 0.0
2017-Mar-12 19:33N 29°41' W 095°00'0 0.0
2017-Mar-12 18:33N 29°41' W 095°00'0 0.0
2017-Mar-12 17:33N 29°41' W 095°00'0 0.0
2017-Mar-12 16:30N 29°41' W 095°00'0 0.0
2017-Mar-12 15:30N 29°41' W 095°00'0 0.0
2017-Mar-12 14:33N 29°41' W 095°00'0 0.0
2017-Mar-12 13:33N 29°41' W 095°00'0 0.0
2017-Mar-12 12:33N 29°41' W 095°00'0 0.0
2017-Mar-12 11:33N 29°41' W 095°00'0 0.0
2017-Mar-12 10:33N 29°41' W 095°00'0 0.0
2017-Mar-12 09:33N 29°41' W 095°00'0 0.0
2017-Mar-12 08:27N 29°41' W 095°00'0 0.0
2017-Mar-12 07:33N 29°41' W 095°00'0 0.0
2017-Mar-12 06:33N 29°41' W 095°00'0 0.0
2017-Mar-12 05:33N 29°41' W 095°00'0 0.0
2017-Mar-12 04:33N 29°41' W 095°00'0 0.0
2017-Mar-12 03:33N 29°41' W 095°00'0 0.0
2017-Mar-12 02:33N 29°41' W 095°00'0 0.0
2017-Mar-12 01:33N 29°41' W 095°00'0 0.0
2017-Mar-12 00:33N 29°41' W 095°00'0 0.0
2017-Mar-11 23:33N 29°41' W 095°00'0 0.5
2017-Mar-11 22:33N 29°41' W 094°60'8 7.7
2017-Mar-11 21:33N 29°34' W 094°55'1110.6
2017-Mar-11 20:34N 29°25' W 094°50'1311.0
2017-Mar-11 19:24N 29°18' W 094°37'7 0.9
2017-Mar-11 12:16N 29°16' W 094°30'  
Track history (hours):
 
Tides and Currents Weather Stations Pressure Air Temp Water Temp Dewpoint Dewpoint Depression Visibility Wind Speed Wind Dir Waves Ship Positions

MOL Paramount

Last reported at 2017-Mar-19 06:28 UTC. Time now 2017-Mar-27 10:51 UTC.
Position N 09°33' W 079°49'.
Warning: this ship's position is 8 days out of date.

Length 293 m; draft 12.9 m.

Type: Cargo ship. MMSI: 371519000.

Date/timePositionNaut miles runAvg speedWind from/ knotsBaromVisibWave heightAir tempDewpointWater temp
2017-Mar-19 06:28N 09°33' W 079°49'1213.6
2017-Mar-19 05:33N 09°22' W 079°55'1 0.9
2017-Mar-19 04:33N 09°21' W 079°55'0 0.0
2017-Mar-19 03:30N 09°21' W 079°55'0 0.0
2017-Mar-19 02:33N 09°21' W 079°55'0 0.0
2017-Mar-19 01:33N 09°21' W 079°55'0 0.0
2017-Mar-19 00:33N 09°21' W 079°55'0 0.0
2017-Mar-18 23:33N 09°21' W 079°55'0 0.0
2017-Mar-18 22:33N 09°21' W 079°55'0 0.0
2017-Mar-18 21:33N 09°21' W 079°55'0 0.0
2017-Mar-18 20:30N 09°21' W 079°55'0 0.0
2017-Mar-18 19:33N 09°21' W 079°55'0 0.0
2017-Mar-18 18:33N 09°21' W 079°55'0 0.0
2017-Mar-18 17:33N 09°21' W 079°55'0 0.0
2017-Mar-18 16:33N 09°21' W 079°55'0 0.0
2017-Mar-18 15:30N 09°21' W 079°55'0 0.0
2017-Mar-18 14:30N 09°21' W 079°55'0 0.0
2017-Mar-18 13:33N 09°21' W 079°55'0 0.0
2017-Mar-18 12:33N 09°21' W 079°55'0 0.0
2017-Mar-18 11:33N 09°21' W 079°55'0 0.0
2017-Mar-18 10:33N 09°21' W 079°55'0 0.0
2017-Mar-18 09:33N 09°21' W 079°55'0 0.0
2017-Mar-18 08:33N 09°21' W 079°55'2 1.6
2017-Mar-18 07:33N 09°23' W 079°55'5 4.8
2017-Mar-18 06:33N 09°27' W 079°55'7 1.3
2017-Mar-18 01:33N 09°21' W 079°55'5 5.1
2017-Mar-18 00:34N 09°26' W 079°55'2 1.7
2017-Mar-17 23:33N 09°27' W 079°57'0 0.2
2017-Mar-17 22:33N 09°27' W 079°57'  
2017-Mar-14 16:33N 29°21' W 094°43'10 9.6
2017-Mar-14 15:33N 29°27' W 094°51'1010.0
2017-Mar-14 14:33N 29°36' W 094°57'6 5.6
2017-Mar-14 13:33N 29°41' W 095°00'0 0.0
2017-Mar-14 12:33N 29°41' W 095°00'0 0.0
2017-Mar-14 11:33N 29°41' W 095°00'0 0.0
2017-Mar-14 10:33N 29°41' W 095°00'0 0.0
2017-Mar-14 09:33N 29°41' W 095°00'0 0.0
2017-Mar-14 08:33N 29°41' W 095°00'0 0.0
2017-Mar-14 07:33N 29°41' W 095°00'0 0.0
2017-Mar-14 06:33N 29°41' W 095°00'0 0.0
2017-Mar-14 05:33N 29°41' W 095°00'0 0.0
2017-Mar-14 04:33N 29°41' W 095°00'0 0.0
2017-Mar-14 03:33N 29°41' W 095°00'0 0.0
2017-Mar-14 02:33N 29°41' W 095°00'0 0.0
2017-Mar-14 01:33N 29°41' W 095°00'0 0.0
2017-Mar-14 00:33N 29°41' W 095°00'0 0.0
2017-Mar-13 23:33N 29°41' W 095°00'0 0.0
2017-Mar-13 22:33N 29°41' W 095°00'0 0.0
2017-Mar-13 21:33N 29°41' W 095°00'0 0.0
2017-Mar-13 20:33N 29°41' W 095°00'0 0.0
2017-Mar-13 19:33N 29°41' W 095°00'0 0.0
2017-Mar-13 18:33N 29°41' W 095°00'0 0.0
2017-Mar-13 17:33N 29°41' W 095°00'0 0.0
2017-Mar-13 16:33N 29°41' W 095°00'0 0.0
2017-Mar-13 15:33N 29°41' W 095°00'0 0.0
2017-Mar-13 14:33N 29°41' W 095°00'0 0.0
2017-Mar-13 13:33N 29°41' W 095°00'0 0.0
2017-Mar-13 12:33N 29°41' W 095°00'0 0.0
2017-Mar-13 11:33N 29°41' W 095°00'0 0.0
2017-Mar-13 10:33N 29°41' W 095°00'0 0.0
2017-Mar-13 09:33N 29°41' W 095°00'0 0.0
2017-Mar-13 08:33N 29°41' W 095°00'0 0.0
2017-Mar-13 07:33N 29°41' W 095°00'0 0.0
2017-Mar-13 06:33N 29°41' W 095°00'0 0.0
2017-Mar-13 05:33N 29°41' W 095°00'0 0.0
2017-Mar-13 04:33N 29°41' W 095°00'0 0.0
2017-Mar-13 03:33N 29°41' W 095°00'0 0.0
2017-Mar-13 02:33N 29°41' W 095°00'0 0.0
2017-Mar-13 01:33N 29°41' W 095°00'0 0.0
2017-Mar-13 00:33N 29°41' W 095°00'0 0.0
2017-Mar-12 23:33N 29°41' W 095°00'0 0.0
2017-Mar-12 22:33N 29°41' W 095°00'0 0.0
2017-Mar-12 21:33N 29°41' W 095°00'0 0.0
2017-Mar-12 20:33N 29°41' W 095°00'0 0.0
2017-Mar-12 19:33N 29°41' W 095°00'0 0.0
2017-Mar-12 18:33N 29°41' W 095°00'0 0.0
2017-Mar-12 17:33N 29°41' W 095°00'0 0.0
2017-Mar-12 16:30N 29°41' W 095°00'0 0.0
2017-Mar-12 15:30N 29°41' W 095°00'0 0.0
2017-Mar-12 14:33N 29°41' W 095°00'0 0.0
2017-Mar-12 13:33N 29°41' W 095°00'0 0.0
2017-Mar-12 12:33N 29°41' W 095°00'0 0.0
2017-Mar-12 11:33N 29°41' W 095°00'0 0.0
2017-Mar-12 10:33N 29°41' W 095°00'0 0.0
2017-Mar-12 09:33N 29°41' W 095°00'0 0.0
2017-Mar-12 08:27N 29°41' W 095°00'0 0.0
2017-Mar-12 07:33N 29°41' W 095°00'0 0.0
2017-Mar-12 06:33N 29°41' W 095°00'0 0.0
2017-Mar-12 05:33N 29°41' W 095°00'0 0.0
2017-Mar-12 04:33N 29°41' W 095°00'0 0.0
2017-Mar-12 03:33N 29°41' W 095°00'0 0.0
2017-Mar-12 02:33N 29°41' W 095°00'0 0.0
2017-Mar-12 01:33N 29°41' W 095°00'0 0.0
2017-Mar-12 00:33N 29°41' W 095°00'0 0.0
2017-Mar-11 23:33N 29°41' W 095°00'0 0.5
2017-Mar-11 22:33N 29°41' W 094°60'8 7.7
2017-Mar-11 21:33N 29°34' W 094°55'1110.6
2017-Mar-11 20:34N 29°25' W 094°50'1311.0
2017-Mar-11 19:24N 29°18' W 094°37'7 0.9
2017-Mar-11 12:16N 29°16' W 094°30'  

Dump ship's entire track history